createdAt,value
2022-10-29T00:01:41.448Z,14.98
2022-10-29T00:04:10.395Z,7.40
2022-10-29T00:06:38.124Z,13.75
2022-10-29T00:09:06.218Z,14.40
2022-10-29T00:11:35.040Z,12.15
2022-10-29T00:14:02.896Z,13.57
2022-10-29T00:16:31.232Z,18.80
2022-10-29T00:18:58.730Z,13.77
2022-10-29T00:21:27.972Z,15.77
2022-10-29T00:23:55.551Z,16.83
2022-10-29T00:26:23.644Z,13.57
2022-10-29T00:28:53.041Z,12.07
2022-10-29T00:31:24.165Z,11.50
2022-10-29T00:33:52.533Z,11.93
2022-10-29T00:36:22.062Z,13.60
2022-10-29T00:38:51.470Z,11.73
2022-10-29T00:41:19.853Z,14.80
2022-10-29T00:43:48.731Z,12.02
2022-10-29T00:46:17.524Z,16.63
2022-10-29T00:48:46.606Z,9.15
2022-10-29T00:51:14.915Z,14.70
2022-10-29T00:53:43.517Z,18.50
2022-10-29T00:56:12.717Z,15.45
2022-10-29T00:58:40.340Z,14.77
2022-10-29T01:01:08.151Z,12.57
2022-10-29T01:03:35.744Z,14.07
2022-10-29T01:06:04.187Z,15.80
2022-10-29T01:08:31.727Z,15.50
2022-10-29T01:11:04.638Z,15.05
2022-10-29T01:13:43.934Z,12.32
2022-10-29T01:16:14.983Z,17.25
2022-10-29T01:18:47.081Z,12.15
2022-10-29T01:21:38.059Z,18.38
2022-10-29T01:24:23.591Z,15.93
2022-10-29T01:27:06.600Z,15.38
2022-10-29T01:29:43.362Z,12.60
2022-10-29T01:32:13.750Z,12.30
2022-10-29T01:34:43.893Z,13.45
2022-10-29T01:37:15.686Z,15.75
2022-10-29T01:39:45.479Z,9.93
2022-10-29T01:42:15.589Z,14.68
2022-10-29T01:44:47.106Z,13.73
2022-10-29T01:47:17.129Z,14.85
2022-10-29T01:49:46.184Z,17.05
2022-10-29T01:52:14.683Z,15.60
2022-10-29T01:54:42.553Z,16.15
2022-10-29T01:57:31.339Z,19.35
2022-10-29T02:00:01.037Z,11.23
2022-10-29T02:02:35.243Z,16.90
2022-10-29T02:05:10.142Z,15.07
2022-10-29T02:07:43.193Z,15.77
2022-10-29T02:10:16.439Z,18.02
2022-10-29T02:12:47.170Z,15.55
2022-10-29T02:15:17.813Z,14.90
2022-10-29T02:17:46.805Z,15.45
2022-10-29T02:20:15.388Z,17.77
2022-10-29T02:22:42.933Z,19.83
2022-10-29T02:25:11.276Z,19.75
2022-10-29T02:27:38.982Z,17.60
2022-10-29T02:30:07.375Z,13.98
2022-10-29T02:32:34.933Z,13.38
2022-10-29T02:35:03.777Z,16.35
2022-10-29T02:37:31.459Z,16.80
2022-10-29T02:39:59.009Z,11.00
2022-10-29T02:42:26.714Z,13.27
2022-10-29T02:44:54.278Z,12.05
2022-10-29T02:47:21.871Z,13.32
2022-10-29T02:49:49.455Z,25.90
2022-10-29T02:52:18.355Z,15.50
2022-10-29T02:54:45.953Z,12.25
2022-10-29T02:57:13.473Z,16.75
2022-10-29T02:59:41.022Z,15.00
2022-10-29T03:02:09.004Z,11.55
2022-10-29T03:04:39.195Z,12.02
2022-10-29T03:07:06.797Z,17.30
2022-10-29T03:09:35.655Z,14.57
2022-10-29T03:12:03.151Z,16.88
2022-10-29T03:14:30.802Z,13.52
2022-10-29T03:16:58.478Z,15.23
2022-10-29T03:19:26.011Z,14.63
2022-10-29T03:21:53.680Z,15.32
2022-10-29T03:24:21.304Z,16.65
2022-10-29T03:26:50.252Z,13.57
2022-10-29T03:29:18.147Z,20.92
2022-10-29T03:31:45.746Z,16.42
2022-10-29T03:34:13.292Z,15.00
2022-10-29T03:36:40.877Z,21.15
2022-10-29T03:39:08.517Z,17.35
2022-10-29T03:41:36.105Z,13.13
2022-10-29T03:44:04.982Z,16.55
2022-10-29T03:46:32.646Z,19.65
2022-10-29T03:49:00.501Z,14.23
2022-10-29T03:51:28.297Z,18.05
2022-10-29T03:53:55.919Z,16.65
2022-10-29T03:56:23.437Z,13.15
2022-10-29T03:58:51.028Z,20.90
2022-10-29T04:01:20.179Z,19.08
2022-10-29T04:03:47.812Z,14.43
2022-10-29T04:06:16.207Z,15.90
2022-10-29T04:08:43.858Z,15.52
2022-10-29T04:11:11.835Z,19.52
2022-10-29T04:13:39.446Z,13.00
2022-10-29T04:16:07.210Z,16.13
2022-10-29T04:18:36.151Z,13.43
2022-10-29T04:27:07.715Z,26.50
2022-10-29T04:29:27.162Z,19.55
2022-10-29T04:31:54.690Z,21.40
2022-10-29T04:34:23.566Z,18.45
2022-10-29T04:36:52.236Z,25.58
2022-10-29T04:39:22.559Z,19.38
2022-10-29T04:41:51.390Z,25.95
2022-10-29T04:44:19.933Z,17.98
2022-10-29T04:46:47.570Z,18.65
2022-10-29T04:49:15.249Z,16.17
2022-10-29T04:51:44.177Z,20.00
2022-10-29T04:54:11.786Z,20.92
2022-10-29T04:56:39.401Z,19.60
2022-10-29T04:59:06.892Z,23.98
2022-10-29T05:04:07.028Z,22.13
2022-10-29T05:06:34.524Z,20.83
2022-10-29T05:09:03.722Z,25.52
2022-10-29T05:11:31.275Z,25.15
2022-10-29T05:13:58.834Z,22.65
2022-10-29T05:16:26.347Z,22.40
2022-10-29T05:18:54.026Z,27.45
2022-10-29T05:21:21.565Z,24.00
2022-10-29T05:23:49.139Z,20.58
2022-10-29T05:26:18.122Z,23.73
2022-10-29T05:28:45.796Z,28.27
2022-10-29T05:31:13.516Z,33.20
2022-10-29T05:33:41.095Z,31.95
2022-10-29T05:36:08.941Z,36.17
2022-10-29T05:38:36.483Z,38.75
2022-10-29T05:41:04.159Z,39.67
2022-10-29T05:43:33.038Z,40.17
2022-10-29T05:46:02.974Z,41.08
2022-10-29T05:48:30.572Z,41.67
2022-10-29T05:50:58.055Z,39.42
2022-10-29T05:53:25.646Z,37.75
2022-10-29T05:55:53.163Z,35.10
2022-10-29T05:58:20.731Z,31.17
2022-10-29T06:00:49.635Z,32.05
2022-10-29T06:03:17.866Z,28.52
2022-10-29T06:05:45.611Z,37.03
2022-10-29T06:08:13.245Z,29.13
2022-10-29T06:10:40.759Z,26.17
2022-10-29T06:13:10.806Z,29.40
2022-10-29T06:15:38.311Z,23.38
2022-10-29T06:18:07.251Z,25.02
2022-10-29T06:20:36.649Z,25.02
2022-10-29T06:23:04.198Z,26.80
2022-10-29T06:25:31.783Z,27.70
2022-10-29T06:28:00.758Z,27.25
2022-10-29T06:30:28.530Z,30.42
2022-10-29T06:32:56.504Z,23.60
2022-10-29T06:35:25.687Z,56.10
2022-10-29T06:37:53.770Z,30.40
2022-10-29T06:40:21.588Z,35.25
2022-10-29T06:42:49.638Z,39.85
2022-10-29T06:45:19.644Z,34.92
2022-10-29T06:47:47.446Z,38.17
2022-10-29T06:50:15.081Z,37.17
2022-10-29T06:52:43.945Z,36.50
2022-10-29T06:55:11.441Z,30.15
2022-10-29T06:57:39.023Z,34.60
2022-10-29T07:00:08.578Z,40.88
2022-10-29T07:02:36.519Z,37.67
2022-10-29T07:05:04.420Z,38.75
2022-10-29T07:07:32.007Z,32.83
2022-10-29T07:10:00.895Z,30.63
2022-10-29T07:12:28.547Z,33.67
2022-10-29T07:14:56.054Z,31.75
2022-10-29T07:17:23.574Z,35.88
2022-10-29T07:19:51.079Z,37.78
2022-10-29T07:22:18.586Z,35.30
2022-10-29T07:24:46.114Z,42.20
2022-10-29T07:27:15.096Z,32.88
2022-10-29T07:29:42.686Z,35.35
2022-10-29T07:32:10.198Z,29.52
2022-10-29T07:34:37.807Z,32.83
2022-10-29T07:37:05.317Z,33.45
2022-10-29T07:39:32.931Z,34.17
2022-10-29T07:42:00.467Z,29.60
2022-10-29T07:44:29.378Z,33.30
2022-10-29T07:46:57.513Z,33.53
2022-10-29T07:49:25.126Z,33.60
2022-10-29T07:51:52.708Z,31.38
2022-10-29T07:54:20.357Z,33.17
2022-10-29T07:56:47.957Z,33.67
2022-10-29T07:59:17.744Z,29.63
2022-10-29T08:01:46.763Z,24.95
2022-10-29T08:04:14.533Z,29.70
2022-10-29T08:06:42.059Z,27.55
2022-10-29T08:09:09.813Z,26.40
2022-10-29T08:11:37.450Z,24.30
2022-10-29T08:14:05.238Z,21.73
2022-10-29T08:16:33.061Z,24.33
2022-10-29T08:19:02.586Z,27.92
2022-10-29T08:21:30.170Z,25.65
2022-10-29T08:23:57.723Z,32.10
2022-10-29T08:26:25.358Z,31.05
2022-10-29T08:28:53.175Z,35.58
2022-10-29T08:31:20.772Z,28.80
2022-10-29T08:33:48.772Z,30.08
2022-10-29T08:36:17.985Z,25.42
2022-10-29T08:38:45.564Z,34.35
2022-10-29T08:41:25.391Z,28.38
2022-10-29T08:46:41.496Z,24.92
2022-10-29T08:49:11.960Z,26.30
2022-10-29T08:51:41.707Z,22.10
2022-10-29T08:57:02.704Z,27.55
2022-10-29T08:59:33.557Z,22.45
2022-10-29T09:02:01.298Z,17.92
2022-10-29T09:04:32.786Z,22.10
2022-10-29T09:07:19.806Z,18.08
2022-10-29T09:09:50.249Z,20.40
2022-10-29T09:12:28.960Z,15.93
2022-10-29T09:15:11.367Z,20.77
2022-10-29T09:17:44.884Z,17.33
2022-10-29T09:20:24.263Z,26.02
2022-10-29T09:22:57.223Z,17.00
2022-10-29T09:25:28.582Z,16.92
2022-10-29T09:28:03.822Z,16.92
2022-10-29T09:30:32.352Z,19.52
2022-10-29T09:33:01.186Z,17.30
2022-10-29T09:35:35.877Z,21.08
2022-10-29T09:38:08.862Z,15.27
2022-10-29T09:40:37.757Z,15.93
2022-10-29T09:43:07.577Z,18.33
2022-10-29T09:45:42.551Z,20.85
2022-10-29T09:48:12.144Z,22.30
2022-10-29T09:50:42.714Z,22.15
2022-10-29T09:53:11.740Z,18.25
2022-10-29T09:55:40.823Z,20.83
2022-10-29T09:58:08.900Z,18.38
2022-10-29T10:00:36.500Z,18.00
2022-10-29T10:03:05.974Z,16.63
2022-10-29T10:05:34.725Z,16.08
2022-10-29T10:08:10.735Z,19.27
2022-10-29T10:10:51.122Z,16.30
2022-10-29T10:13:20.656Z,12.68
2022-10-29T10:15:52.954Z,12.10
2022-10-29T10:18:22.167Z,9.60
2022-10-29T10:21:00.089Z,13.75
2022-10-29T10:23:28.448Z,14.20
2022-10-29T10:26:02.072Z,14.60
2022-10-29T10:28:34.311Z,11.93
2022-10-29T10:31:07.107Z,10.50
2022-10-29T10:33:35.532Z,13.63
2022-10-29T10:36:04.749Z,12.25
2022-10-29T10:38:38.887Z,10.85
2022-10-29T10:41:08.830Z,12.60
2022-10-29T10:43:36.483Z,15.95
2022-10-29T10:46:06.419Z,15.77
2022-10-29T10:51:10.749Z,9.73
2022-10-29T10:53:40.347Z,12.02
2022-10-29T10:56:16.258Z,16.13
2022-10-29T10:58:45.489Z,13.25
2022-10-29T11:01:14.933Z,13.90
2022-10-29T11:03:44.395Z,11.93
2022-10-29T11:06:15.505Z,11.73
2022-10-29T11:08:45.012Z,12.75
2022-10-29T11:11:16.379Z,12.90
2022-10-29T11:13:44.874Z,16.35
2022-10-29T11:16:16.109Z,12.85
2022-10-29T11:18:46.389Z,14.30
2022-10-29T11:21:16.036Z,14.10
2022-10-29T11:23:45.989Z,14.55
2022-10-29T11:26:18.509Z,15.52
2022-10-29T11:28:48.145Z,15.50
2022-10-29T11:31:19.305Z,15.35
2022-10-29T11:33:49.176Z,18.48
2022-10-29T11:36:19.556Z,13.77
2022-10-29T11:38:49.962Z,16.55
2022-10-29T11:41:22.877Z,15.70
2022-10-29T11:43:50.560Z,21.90
2022-10-29T11:46:23.327Z,15.05
2022-10-29T11:48:58.438Z,19.13
2022-10-29T11:51:29.488Z,15.82
2022-10-29T11:53:59.395Z,17.38
2022-10-29T11:56:31.709Z,14.82
2022-10-29T11:59:03.041Z,15.07
2022-10-29T12:01:35.476Z,14.45
2022-10-29T12:06:47.029Z,17.48
2022-10-29T12:09:32.654Z,11.57
2022-10-29T12:12:04.695Z,15.10
2022-10-29T12:14:36.901Z,13.02
2022-10-29T12:17:10.557Z,17.77
2022-10-29T12:19:43.013Z,12.32
2022-10-29T12:22:18.067Z,15.45
2022-10-29T12:24:54.343Z,13.65
2022-10-29T12:27:26.479Z,14.95
2022-10-29T12:29:58.878Z,16.83
2022-10-29T12:32:28.745Z,15.68
2022-10-29T12:35:02.671Z,12.82
2022-10-29T12:37:37.768Z,18.08
2022-10-29T12:40:10.050Z,15.48
2022-10-29T12:42:39.916Z,12.80
2022-10-29T12:45:15.944Z,16.17
2022-10-29T12:47:47.531Z,14.20
2022-10-29T12:50:21.635Z,16.02
2022-10-29T12:52:53.426Z,11.88
2022-10-29T12:55:21.108Z,15.07
2022-10-29T12:57:50.134Z,16.02
2022-10-29T13:00:33.961Z,16.58
2022-10-29T13:03:02.172Z,18.00
2022-10-29T13:05:40.669Z,15.60
2022-10-29T13:08:32.415Z,16.30
2022-10-29T13:11:00.342Z,15.30
2022-10-29T13:13:46.810Z,23.73
2022-10-29T13:16:17.448Z,15.05
2022-10-29T13:18:48.409Z,15.45
2022-10-29T13:21:30.844Z,16.38
2022-10-29T13:24:03.842Z,14.35
2022-10-29T13:26:46.399Z,20.63
2022-10-29T13:29:34.126Z,14.40
2022-10-29T13:32:04.847Z,20.88
2022-10-29T13:34:52.633Z,17.63
2022-10-29T13:37:44.436Z,13.60
2022-10-29T13:40:30.752Z,13.43
2022-10-29T13:43:00.931Z,14.00
2022-10-29T13:45:28.647Z,17.08
2022-10-29T13:48:00.703Z,16.88
2022-10-29T13:50:28.316Z,15.68
2022-10-29T13:52:57.719Z,15.75
2022-10-29T13:55:26.458Z,15.65
2022-10-29T13:58:00.913Z,19.17
2022-10-29T14:00:29.072Z,21.67
2022-10-29T14:03:01.302Z,14.20
2022-10-29T14:05:30.738Z,17.05
2022-10-29T14:08:01.133Z,19.98
2022-10-29T14:13:08.780Z,20.65
2022-10-29T14:15:39.041Z,22.85
2022-10-29T14:18:25.224Z,17.40
2022-10-29T14:20:55.994Z,20.48
2022-10-29T14:23:23.572Z,19.45
2022-10-29T14:25:52.555Z,18.45
2022-10-29T14:28:22.176Z,19.10
2022-10-29T14:30:59.481Z,17.00
2022-10-29T14:33:28.991Z,14.52
2022-10-29T14:35:57.679Z,13.70
2022-10-29T14:38:31.049Z,17.30
2022-10-29T14:40:58.697Z,13.25
2022-10-29T14:43:28.345Z,14.05
2022-10-29T14:45:57.033Z,12.98
2022-10-29T14:48:24.657Z,11.60
2022-10-29T14:50:56.404Z,17.65
2022-10-29T14:53:28.539Z,17.67
2022-10-29T14:55:56.310Z,15.48
2022-10-29T14:58:27.108Z,13.48
2022-10-29T15:00:56.578Z,13.50
2022-10-29T15:03:25.705Z,14.13
2022-10-29T15:06:10.666Z,15.20
2022-10-29T15:08:39.530Z,18.15
2022-10-29T15:11:15.564Z,15.65
2022-10-29T15:13:43.283Z,20.17
2022-10-29T15:16:18.160Z,24.35
2022-10-29T15:18:48.156Z,15.60
2022-10-29T15:21:22.708Z,19.58
2022-10-29T15:23:53.617Z,14.98
2022-10-29T15:26:21.897Z,16.30
2022-10-29T15:28:50.203Z,16.77
2022-10-29T15:31:20.423Z,19.02
2022-10-29T15:33:48.363Z,19.95
2022-10-29T15:36:15.954Z,18.63
2022-10-29T15:39:09.869Z,20.95
2022-10-29T15:41:38.491Z,21.23
2022-10-29T15:44:26.501Z,21.08
2022-10-29T15:46:58.831Z,19.38
2022-10-29T15:49:28.373Z,26.00
2022-10-29T15:52:00.250Z,19.13
2022-10-29T15:54:29.903Z,24.40
2022-10-29T15:56:57.463Z,23.65
2022-10-29T15:59:26.499Z,22.35
2022-10-29T16:01:54.338Z,21.10
2022-10-29T16:04:22.006Z,24.58
2022-10-29T16:06:49.573Z,57.58
2022-10-29T16:09:18.117Z,61.50
2022-10-29T16:11:47.151Z,44.20
2022-10-29T16:14:14.884Z,40.33
2022-10-29T16:16:42.403Z,39.97
2022-10-29T16:19:10.022Z,47.40
2022-10-29T16:21:37.624Z,30.90
2022-10-29T16:24:05.423Z,41.85
2022-10-29T16:26:33.244Z,32.88
2022-10-29T16:29:02.167Z,29.45
2022-10-29T16:31:30.174Z,28.42
2022-10-29T16:33:58.425Z,27.70
2022-10-29T16:36:25.973Z,25.20
2022-10-29T16:38:53.546Z,22.50
2022-10-29T16:41:21.833Z,31.85
2022-10-29T16:43:49.607Z,25.67
2022-10-29T16:46:18.643Z,20.95
2022-10-29T16:48:46.519Z,26.90
2022-10-29T16:51:14.240Z,28.30
2022-10-29T16:53:41.799Z,27.70
2022-10-29T16:56:09.323Z,28.13
2022-10-29T16:58:36.886Z,27.23
2022-10-29T17:01:05.333Z,24.90
2022-10-29T17:03:35.231Z,31.45
2022-10-29T17:06:03.919Z,28.27
2022-10-29T17:08:32.310Z,27.67
2022-10-29T17:11:00.343Z,42.72
2022-10-29T17:13:27.879Z,40.25
2022-10-29T17:15:55.492Z,32.58
2022-10-29T17:18:24.602Z,26.70
2022-10-29T17:20:57.466Z,28.20
2022-10-29T17:23:25.152Z,32.47
2022-10-29T17:25:54.299Z,32.78
2022-10-29T17:28:21.969Z,31.52
2022-10-29T17:39:43.917Z,30.23
2022-10-29T17:42:11.500Z,25.65
2022-10-29T17:44:39.062Z,29.70
2022-10-29T17:47:06.596Z,26.05
2022-10-29T17:49:34.167Z,25.27
2022-10-29T17:52:01.721Z,27.35
2022-10-29T17:54:29.252Z,28.70
2022-10-29T17:56:58.245Z,29.52
2022-10-29T17:59:25.970Z,30.45
2022-10-29T18:01:53.578Z,27.63
2022-10-29T18:04:21.227Z,30.42
2022-10-29T18:06:48.870Z,24.15
2022-10-29T18:09:20.213Z,28.83
2022-10-29T18:11:49.414Z,29.52
2022-10-29T18:14:18.353Z,28.13
2022-10-29T18:16:46.396Z,31.80
2022-10-29T18:19:13.922Z,27.10
2022-10-29T18:21:41.547Z,28.10
2022-10-29T18:24:09.384Z,31.60
2022-10-29T18:26:37.299Z,25.83
2022-10-29T18:29:07.697Z,31.77
2022-10-29T18:31:37.467Z,28.83
2022-10-29T18:34:06.256Z,31.08
2022-10-29T18:36:35.406Z,28.27
2022-10-29T18:39:03.890Z,28.05
2022-10-29T18:41:31.462Z,29.85
2022-10-29T18:43:59.372Z,31.05
2022-10-29T18:46:27.327Z,28.73
2022-10-29T18:48:56.311Z,27.88
2022-10-29T18:51:25.088Z,28.98
2022-10-29T18:53:52.950Z,24.13
2022-10-29T18:56:21.797Z,28.88
2022-10-29T18:58:49.386Z,28.35
2022-10-29T19:01:18.233Z,26.73
2022-10-29T19:03:50.440Z,30.50
2022-10-29T19:06:19.895Z,31.88
2022-10-29T19:08:47.399Z,30.15
2022-10-29T19:11:16.005Z,30.70
2022-10-29T19:13:43.764Z,27.02
2022-10-29T19:16:12.033Z,31.70
2022-10-29T19:18:40.258Z,31.73
2022-10-29T19:21:08.576Z,30.08
2022-10-29T19:23:37.547Z,30.38
2022-10-29T19:26:05.557Z,32.58
2022-10-29T19:28:33.287Z,30.35
2022-10-29T19:31:04.066Z,27.58
2022-10-29T19:33:31.763Z,35.95
2022-10-29T19:35:59.668Z,30.30
2022-10-29T19:38:27.456Z,30.15
2022-10-29T19:40:56.997Z,30.83
2022-10-29T19:43:24.547Z,31.42
2022-10-29T19:45:52.816Z,26.08
2022-10-29T19:48:20.501Z,27.73
2022-10-29T19:50:53.714Z,31.00
2022-10-29T19:53:21.284Z,30.90
2022-10-29T19:55:50.364Z,33.92
2022-10-29T19:58:19.692Z,28.80
2022-10-29T20:00:47.572Z,28.05
2022-10-29T20:03:15.571Z,35.30
2022-10-29T20:05:43.700Z,32.53
2022-10-29T20:08:15.675Z,35.75
2022-10-29T20:10:44.140Z,30.92
2022-10-29T20:13:11.814Z,30.60
2022-10-29T20:15:40.859Z,27.08
2022-10-29T20:18:08.394Z,31.13
2022-10-29T20:20:36.182Z,34.25
2022-10-29T20:23:03.797Z,27.75
2022-10-29T20:25:31.354Z,29.13
2022-10-29T20:28:01.753Z,28.48
2022-10-29T20:30:29.306Z,28.10
2022-10-29T20:32:58.554Z,28.98
2022-10-29T20:35:26.435Z,33.13
2022-10-29T20:37:53.982Z,30.55
2022-10-29T20:40:21.544Z,32.70
2022-10-29T20:42:50.106Z,34.72
2022-10-29T20:45:17.776Z,30.20
2022-10-29T20:47:45.310Z,28.77
2022-10-29T20:50:14.413Z,28.30
2022-10-29T20:52:47.222Z,29.40
2022-10-29T20:55:16.324Z,29.77
2022-10-29T20:57:43.888Z,32.72
2022-10-29T21:00:11.960Z,35.88
2022-10-29T21:02:39.678Z,33.33
2022-10-29T21:05:07.513Z,33.42
2022-10-29T21:07:36.597Z,26.25
2022-10-29T21:10:04.197Z,29.55
2022-10-29T21:12:31.689Z,31.98
2022-10-29T21:14:59.203Z,31.13
2022-10-29T21:17:26.726Z,37.58
2022-10-29T21:19:54.218Z,32.05
2022-10-29T21:22:21.969Z,32.00
2022-10-29T21:24:51.011Z,27.30
2022-10-29T21:27:18.532Z,33.92
2022-10-29T21:29:46.111Z,31.63
2022-10-29T21:32:16.871Z,33.60
2022-10-29T21:34:44.769Z,32.28
2022-10-29T21:37:12.351Z,36.47
2022-10-29T21:39:39.909Z,29.08
2022-10-29T21:42:08.937Z,29.67
2022-10-29T21:44:36.535Z,32.78
2022-10-29T21:47:04.202Z,31.33
2022-10-29T21:49:31.759Z,31.58
2022-10-29T21:51:59.494Z,32.05
2022-10-29T21:54:28.383Z,36.38
2022-10-29T21:56:56.304Z,34.58
2022-10-29T21:59:25.206Z,38.38
2022-10-29T22:01:52.960Z,37.47
2022-10-29T22:04:20.811Z,36.22
2022-10-29T22:06:48.377Z,36.92
2022-10-29T22:09:15.938Z,35.35
2022-10-29T22:11:43.500Z,32.00
2022-10-29T22:14:11.077Z,33.25
2022-10-29T22:16:40.126Z,33.95
2022-10-29T22:19:07.757Z,38.75
2022-10-29T22:21:35.289Z,35.70
2022-10-29T22:24:02.925Z,33.35
2022-10-29T22:26:30.726Z,33.70
2022-10-29T22:28:58.300Z,35.65
2022-10-29T22:31:25.897Z,35.47
2022-10-29T22:33:54.974Z,32.75
2022-10-29T22:36:23.604Z,36.63
2022-10-29T22:38:53.342Z,35.78
2022-10-29T22:41:20.873Z,32.60
2022-10-29T22:43:48.417Z,36.22
2022-10-29T22:46:16.819Z,39.05
2022-10-29T22:48:44.461Z,39.22
2022-10-29T22:51:14.992Z,42.65
2022-10-29T22:53:42.867Z,37.17
2022-10-29T22:56:11.997Z,30.83
2022-10-29T22:58:39.519Z,43.58
2022-10-29T23:01:09.157Z,33.17
2022-10-29T23:03:38.663Z,32.55
2022-10-29T23:06:07.189Z,33.63
2022-10-29T23:08:36.283Z,38.15
2022-10-29T23:11:07.592Z,42.05
2022-10-29T23:13:35.475Z,31.15
2022-10-29T23:16:03.018Z,35.22
2022-10-29T23:18:30.580Z,29.83
2022-10-29T23:20:58.683Z,29.92
2022-10-29T23:23:26.207Z,33.25
2022-10-29T23:26:01.122Z,32.17
2022-10-29T23:28:29.347Z,33.33
2022-10-29T23:30:57.560Z,38.03
2022-10-29T23:33:25.382Z,29.83
2022-10-29T23:35:52.945Z,28.73
2022-10-29T23:38:20.530Z,31.80
2022-10-29T23:40:48.625Z,29.35
2022-10-29T23:43:17.544Z,28.27
2022-10-29T23:45:45.120Z,32.22
2022-10-29T23:48:12.726Z,33.28
2022-10-29T23:50:40.312Z,28.52
2022-10-29T23:53:08.098Z,33.63
2022-10-29T23:55:36.286Z,27.88
2022-10-29T23:58:04.769Z,29.95
